createdAt,value
2022-09-01T00:03:06.188Z,4.95
2022-09-01T00:08:08.370Z,4.87
2022-09-01T00:13:10.524Z,5.03
2022-09-01T00:18:13.607Z,4.87
2022-09-01T00:23:15.758Z,4.05
2022-09-01T00:28:17.972Z,3.95
2022-09-01T00:33:20.284Z,4.53
2022-09-01T00:38:22.533Z,4.78
2022-09-01T00:43:44.508Z,4.82
2022-09-01T00:48:51.422Z,5.10
2022-09-01T00:53:55.859Z,3.78
2022-09-01T00:58:59.789Z,4.25
2022-09-01T01:04:03.414Z,3.40
2022-09-01T01:09:05.762Z,3.75
2022-09-01T01:14:11.998Z,3.37
2022-09-01T01:19:58.958Z,3.90
2022-09-01T01:25:02.043Z,3.75
2022-09-01T01:30:11.071Z,4.25
2022-09-01T01:35:15.794Z,3.45
2022-09-01T01:40:22.050Z,3.28
2022-09-01T01:45:25.806Z,3.78
2022-09-01T01:50:35.519Z,4.45
2022-09-01T01:55:37.996Z,3.53
2022-09-01T02:00:42.766Z,3.12
2022-09-01T02:05:47.083Z,3.08
2022-09-01T02:10:52.149Z,3.50
2022-09-01T02:15:57.413Z,3.10
2022-09-01T02:21:00.515Z,2.80
2022-09-01T02:26:16.242Z,2.72
2022-09-01T02:31:19.967Z,2.40
2022-09-01T02:36:25.000Z,2.62
2022-09-01T02:41:30.079Z,2.67
2022-09-01T02:46:32.853Z,2.22
2022-09-01T02:51:35.018Z,2.05
2022-09-01T02:56:37.229Z,2.28
2022-09-01T03:01:40.300Z,1.98
2022-09-01T03:11:48.863Z,1.85
2022-09-01T03:16:51.744Z,1.87
2022-09-01T03:21:57.450Z,1.73
2022-09-01T03:27:01.044Z,1.75
2022-09-01T03:32:04.323Z,1.50
2022-09-01T03:37:07.912Z,1.87
2022-09-01T03:42:19.937Z,1.70
2022-09-01T03:47:22.265Z,1.87
2022-09-01T03:52:27.806Z,1.45
2022-09-01T03:57:32.620Z,2.33
2022-09-01T04:02:35.564Z,1.83
2022-09-01T04:07:38.554Z,1.73
2022-09-01T04:12:41.076Z,1.67
2022-09-01T04:18:02.947Z,1.62
2022-09-01T04:23:10.951Z,1.87
2022-09-01T04:28:22.810Z,2.20
2022-09-01T04:33:27.613Z,1.98
2022-09-01T04:38:30.868Z,1.83
2022-09-01T04:43:34.540Z,2.00
2022-09-01T04:48:38.859Z,1.70
2022-09-01T04:53:48.876Z,2.00
2022-09-01T04:58:56.040Z,1.60
2022-09-01T05:04:01.411Z,1.95
2022-09-01T05:09:09.751Z,1.73
2022-09-01T05:14:13.800Z,1.58
2022-09-01T05:19:17.401Z,2.00
2022-09-01T05:24:21.819Z,2.33
2022-09-01T05:29:27.610Z,2.67
2022-09-01T05:34:32.353Z,1.30
2022-09-01T05:39:36.483Z,1.87
2022-09-01T05:44:44.343Z,1.67
2022-09-01T05:49:47.132Z,1.58
2022-09-01T05:54:49.951Z,1.52
2022-09-01T05:59:54.135Z,1.50
2022-09-01T06:04:57.350Z,1.50
2022-09-01T06:10:01.082Z,1.92
2022-09-01T06:15:07.091Z,1.98
2022-09-01T06:20:10.558Z,1.67
2022-09-01T06:25:14.150Z,1.20
2022-09-01T06:30:23.863Z,1.25
2022-09-01T06:35:29.770Z,1.80
2022-09-01T06:40:33.983Z,1.90
2022-09-01T06:45:43.348Z,1.95
2022-09-01T06:56:13.016Z,2.28
2022-09-01T07:01:20.291Z,2.17
2022-09-01T07:12:24.788Z,2.53
2022-09-01T07:17:23.615Z,2.20
2022-09-01T07:27:50.656Z,2.30
2022-09-01T07:32:55.499Z,2.28
2022-09-01T07:38:48.356Z,2.20
2022-09-01T07:43:27.258Z,2.47
2022-09-01T07:49:01.823Z,2.37
2022-09-01T07:53:56.444Z,2.95
2022-09-01T07:58:59.085Z,3.30
2022-09-01T08:04:04.591Z,2.45
2022-09-01T08:09:07.405Z,2.62
2022-09-01T08:14:14.492Z,2.22
2022-09-01T08:19:18.163Z,3.87
2022-09-01T08:24:23.371Z,3.03
2022-09-01T08:29:25.858Z,3.22
2022-09-01T08:34:28.149Z,3.80
2022-09-01T08:39:30.497Z,3.00
2022-09-01T08:44:51.962Z,4.25
2022-09-01T08:49:54.607Z,3.42
2022-09-01T08:55:22.200Z,3.37
2022-09-01T09:00:30.436Z,4.18
2022-09-01T09:05:59.529Z,4.55
2022-09-01T09:11:25.899Z,4.80
2022-09-01T09:16:43.208Z,5.32
2022-09-01T09:21:48.172Z,4.45
2022-09-01T09:26:56.104Z,3.50
2022-09-01T09:37:32.400Z,4.45
2022-09-01T09:42:36.675Z,5.25
2022-09-01T09:47:44.451Z,5.62
2022-09-01T09:52:48.663Z,4.50
2022-09-01T09:57:55.142Z,4.90
2022-09-01T10:03:11.249Z,4.05
2022-09-01T10:08:48.023Z,3.85
2022-09-01T10:13:51.990Z,5.20
2022-09-01T10:19:00.699Z,3.78
2022-09-01T10:24:20.584Z,4.00
2022-09-01T10:29:47.431Z,4.43
2022-09-01T10:34:50.868Z,3.95
2022-09-01T10:40:31.082Z,4.53
2022-09-01T10:45:40.360Z,4.22
2022-09-01T10:50:42.965Z,6.18
2022-09-01T10:56:01.945Z,4.05
2022-09-01T11:01:11.814Z,5.05
2022-09-01T11:06:34.840Z,4.43
2022-09-01T11:11:55.135Z,4.00
2022-09-01T11:17:24.059Z,3.70
2022-09-01T11:22:43.280Z,5.40
2022-09-01T11:27:48.152Z,4.00
2022-09-01T11:33:02.275Z,4.87
2022-09-01T11:38:07.717Z,3.85
2022-09-01T11:43:16.650Z,3.78
2022-09-01T11:48:19.248Z,3.10
2022-09-01T11:53:23.917Z,3.22
2022-09-01T11:58:34.463Z,2.90
2022-09-01T12:03:36.979Z,2.92
2022-09-01T12:08:42.883Z,3.12
2022-09-01T12:13:56.602Z,3.10
2022-09-01T12:18:59.500Z,3.17
2022-09-01T12:24:18.109Z,1.83
2022-09-01T12:29:20.856Z,3.05
2022-09-01T12:34:35.594Z,2.20
2022-09-01T12:39:40.733Z,2.80
2022-09-01T12:44:47.515Z,1.70
2022-09-01T12:49:52.027Z,1.95
2022-09-01T12:55:04.180Z,1.95
2022-09-01T13:00:15.435Z,2.30
2022-09-01T13:05:42.563Z,2.33
2022-09-01T13:10:54.600Z,2.00
2022-09-01T13:16:12.626Z,2.15
2022-09-01T13:21:16.139Z,2.12
2022-09-01T13:26:18.369Z,2.08
2022-09-01T13:31:29.495Z,2.03
2022-09-01T13:36:51.463Z,2.13
2022-09-01T13:41:54.196Z,1.67
2022-09-01T13:46:59.700Z,2.12
2022-09-01T13:52:02.969Z,2.03
2022-09-01T13:57:05.958Z,2.30
2022-09-01T14:02:08.148Z,2.08
2022-09-01T14:07:10.383Z,2.28
2022-09-01T14:12:12.571Z,2.22
2022-09-01T14:17:14.676Z,2.03
2022-09-01T14:22:17.218Z,2.67
2022-09-01T14:27:20.114Z,1.90
2022-09-01T14:32:25.022Z,2.45
2022-09-01T14:37:27.311Z,1.85
2022-09-01T14:42:29.734Z,2.30
2022-09-01T14:47:32.130Z,1.90
2022-09-01T14:52:37.113Z,2.00
2022-09-01T14:57:39.452Z,1.80
2022-09-01T15:02:43.043Z,2.00
2022-09-01T15:07:45.990Z,1.55
2022-09-01T15:12:49.723Z,1.95
2022-09-01T15:17:52.213Z,2.00
2022-09-01T15:22:54.458Z,1.85
2022-09-01T15:27:56.804Z,1.90
2022-09-01T15:32:59.051Z,1.60
2022-09-01T15:38:01.882Z,1.87
2022-09-01T15:43:05.855Z,1.80
2022-09-01T15:48:08.030Z,1.65
2022-09-01T15:53:13.084Z,1.52
2022-09-01T15:58:17.748Z,1.50
2022-09-01T16:03:19.986Z,1.83
2022-09-01T16:08:22.321Z,1.73
2022-09-01T16:13:25.675Z,1.73
2022-09-01T16:18:54.055Z,1.37
2022-09-01T16:23:56.614Z,1.92
2022-09-01T16:29:02.318Z,1.90
2022-09-01T16:34:18.141Z,1.83
2022-09-01T16:39:47.061Z,1.67
2022-09-01T16:44:53.976Z,2.22
2022-09-01T16:50:20.826Z,1.67
2022-09-01T16:55:50.735Z,1.73
2022-09-01T17:01:17.164Z,1.62
2022-09-01T17:06:31.963Z,1.70
2022-09-01T17:11:53.736Z,1.77
2022-09-01T17:17:09.028Z,1.98
2022-09-01T17:22:14.541Z,1.80
2022-09-01T17:27:38.255Z,2.62
2022-09-01T17:32:49.943Z,1.30
2022-09-01T17:38:04.626Z,1.40
2022-09-01T17:43:17.653Z,1.87
2022-09-01T17:48:43.890Z,1.48
2022-09-01T17:53:48.961Z,2.05
2022-09-01T17:59:06.191Z,1.70
2022-09-01T18:04:35.707Z,1.25
2022-09-01T18:09:45.178Z,1.50
2022-09-01T18:14:53.319Z,1.58
2022-09-01T18:20:07.338Z,1.92
2022-09-01T18:25:18.016Z,1.60
2022-09-01T18:30:42.802Z,1.87
2022-09-01T18:35:52.401Z,1.90
2022-09-01T18:41:07.744Z,1.73
2022-09-01T18:46:36.685Z,1.75
2022-09-01T18:52:20.971Z,1.62
2022-09-01T18:57:33.537Z,1.67
2022-09-01T19:02:53.859Z,1.67
2022-09-01T19:08:19.154Z,1.60
2022-09-01T19:13:39.443Z,1.80
2022-09-01T19:18:55.951Z,1.98
2022-09-01T19:24:10.406Z,2.03
2022-09-01T19:29:17.789Z,2.08
2022-09-01T19:34:43.919Z,1.85
2022-09-01T19:39:53.351Z,1.65
2022-09-01T19:45:14.396Z,2.05
2022-09-01T19:50:32.591Z,2.03
2022-09-01T19:55:51.355Z,1.62
2022-09-01T20:01:01.162Z,2.05
2022-09-01T20:06:32.070Z,1.87
2022-09-01T20:11:50.404Z,1.52
2022-09-01T20:17:01.023Z,1.87
2022-09-01T20:22:24.646Z,1.67
2022-09-01T20:27:42.962Z,2.03
2022-09-01T20:33:15.148Z,1.58
2022-09-01T20:38:43.265Z,1.85
2022-09-01T20:43:51.412Z,1.65
2022-09-01T20:48:53.621Z,1.70
2022-09-01T20:54:00.551Z,2.25
2022-09-01T20:59:58.184Z,2.20
2022-09-01T21:05:41.207Z,2.05
2022-09-01T21:11:00.178Z,1.87
2022-09-01T21:16:29.580Z,2.20
2022-09-01T21:21:46.466Z,2.42
2022-09-01T21:26:52.893Z,2.05
2022-09-01T21:31:56.443Z,1.90
2022-09-01T21:36:58.827Z,2.00
2022-09-01T21:42:01.384Z,1.52
2022-09-01T21:47:04.179Z,2.10
2022-09-01T21:57:08.599Z,2.70
2022-09-01T22:02:11.062Z,2.43
2022-09-01T22:07:15.280Z,2.72
2022-09-01T22:12:17.597Z,2.28
2022-09-01T22:17:19.797Z,2.10
2022-09-01T22:22:21.999Z,2.45
2022-09-01T22:27:24.231Z,2.42
2022-09-01T22:32:31.120Z,2.05
2022-09-01T22:37:35.967Z,2.03
2022-09-01T22:47:41.213Z,1.95
2022-09-01T22:57:45.892Z,2.30
2022-09-01T23:02:48.163Z,2.87
2022-09-01T23:07:50.429Z,3.00
2022-09-01T23:12:52.576Z,3.45
2022-09-01T23:17:54.758Z,2.97
2022-09-01T23:22:56.923Z,2.95
2022-09-01T23:27:59.057Z,2.27
2022-09-01T23:33:01.335Z,2.80
2022-09-01T23:38:03.575Z,2.58
2022-09-01T23:43:05.729Z,3.10
2022-09-01T23:48:08.484Z,2.78
2022-09-01T23:58:13.781Z,2.47
